createdAt,value
2022-10-20T00:01:09.898Z,101989.63
2022-10-20T00:03:36.738Z,101933.84
2022-10-20T00:06:15.722Z,102137.13
2022-10-20T00:08:43.077Z,102013.94
2022-10-20T00:11:11.738Z,102101.53
2022-10-20T00:13:39.404Z,102148.16
2022-10-20T00:16:06.471Z,102140.50
2022-10-20T00:18:33.712Z,101969.50
2022-10-20T00:21:00.234Z,102151.09
2022-10-20T00:23:26.728Z,102134.63
2022-10-20T00:26:05.530Z,102151.69
2022-10-20T00:28:32.230Z,102014.56
2022-10-20T00:30:58.722Z,102056.34
2022-10-20T00:33:25.903Z,102112.97
2022-10-20T00:35:52.366Z,101943.09
2022-10-20T00:40:50.150Z,102105.13
2022-10-20T00:43:17.304Z,102097.88
2022-10-20T00:45:49.963Z,102124.72
2022-10-20T00:48:19.990Z,102046.31
2022-10-20T00:50:52.693Z,101899.53
2022-10-20T00:53:21.539Z,102129.47
2022-10-20T00:55:50.828Z,102044.13
2022-10-20T00:58:18.171Z,101941.88
2022-10-20T01:00:48.298Z,102122.66
2022-10-20T01:03:19.466Z,102037.50
2022-10-20T01:05:45.872Z,102101.38
2022-10-20T01:08:12.322Z,102110.91
2022-10-20T01:11:06.274Z,102092.06
2022-10-20T01:13:59.627Z,102052.44
2022-10-20T01:16:59.075Z,102071.28
2022-10-20T01:19:59.546Z,102101.72
2022-10-20T01:22:37.602Z,101886.31
2022-10-20T01:25:10.152Z,102089.28
2022-10-20T01:27:44.646Z,102024.38
2022-10-20T01:30:24.717Z,101933.13
2022-10-20T01:33:18.801Z,102085.94
2022-10-20T01:36:10.654Z,102062.34
2022-10-20T01:38:43.801Z,101725.63
2022-10-20T01:41:46.611Z,102043.88
2022-10-20T01:44:16.845Z,102061.00
2022-10-20T01:46:45.115Z,101950.59
2022-10-20T01:49:17.687Z,102065.56
2022-10-20T01:51:44.056Z,102056.72
2022-10-20T01:54:25.918Z,102080.06
2022-10-20T01:57:07.559Z,102057.06
2022-10-20T02:00:10.316Z,102054.09
2022-10-20T02:02:42.796Z,102055.66
2022-10-20T02:05:37.928Z,102053.47
2022-10-20T02:08:33.215Z,102046.91
2022-10-20T02:11:03.002Z,101957.72
2022-10-20T02:13:31.167Z,102026.09
2022-10-20T02:16:01.146Z,101848.78
2022-10-20T02:18:33.591Z,101889.28
2022-10-20T02:21:02.773Z,102002.53
2022-10-20T02:23:35.086Z,101858.22
2022-10-20T02:26:12.618Z,101995.50
2022-10-20T02:28:42.892Z,101959.81
2022-10-20T02:31:09.829Z,101963.50
2022-10-20T02:33:42.404Z,101871.25
2022-10-20T02:36:15.641Z,101825.88
2022-10-20T02:38:42.013Z,101853.81
2022-10-20T02:41:08.391Z,101832.75
2022-10-20T02:43:35.017Z,101995.50
2022-10-20T02:46:01.555Z,101978.09
2022-10-20T02:48:27.948Z,101987.03
2022-10-20T02:50:54.370Z,101981.22
2022-10-20T02:53:20.755Z,101969.78
2022-10-20T02:55:47.205Z,101974.25
2022-10-20T02:58:13.679Z,101980.84
2022-10-20T03:00:40.161Z,101983.72
2022-10-20T03:03:06.718Z,101972.63
2022-10-20T03:05:33.240Z,101847.72
2022-10-20T03:07:59.755Z,101980.50
2022-10-20T03:10:26.267Z,101944.16
2022-10-20T03:12:52.744Z,101986.13
2022-10-20T03:15:19.171Z,101968.56
2022-10-20T03:17:45.545Z,101980.47
2022-10-20T03:20:11.895Z,101818.78
2022-10-20T03:22:38.414Z,101980.38
2022-10-20T03:25:05.260Z,101976.94
2022-10-20T03:27:31.677Z,101980.00
2022-10-20T03:29:58.230Z,101975.75
2022-10-20T03:32:24.635Z,101973.03
2022-10-20T03:34:51.128Z,101869.44
2022-10-20T03:37:17.712Z,101935.97
2022-10-20T03:39:44.090Z,101950.84
2022-10-20T03:42:10.434Z,101967.03
2022-10-20T03:44:36.872Z,101938.72
2022-10-20T03:47:03.312Z,101880.09
2022-10-20T03:49:33.361Z,101458.91
2022-10-20T03:52:00.076Z,101968.06
2022-10-20T03:54:26.672Z,101941.66
2022-10-20T03:56:53.151Z,101940.53
2022-10-20T03:59:19.727Z,101958.34
2022-10-20T04:01:47.105Z,101905.88
2022-10-20T04:04:14.172Z,101989.69
2022-10-20T04:06:40.643Z,101953.06
2022-10-20T04:09:07.137Z,101944.59
2022-10-20T04:11:36.769Z,101784.19
2022-10-20T04:14:09.564Z,101876.97
2022-10-20T04:16:35.976Z,101928.28
2022-10-20T04:19:02.405Z,101896.25
2022-10-20T04:21:28.826Z,101939.03
2022-10-20T04:23:55.192Z,101861.19
2022-10-20T04:26:21.557Z,101905.47
2022-10-20T04:29:14.245Z,101937.25
2022-10-20T04:31:41.751Z,101884.47
2022-10-20T04:34:29.826Z,101919.00
2022-10-20T04:36:56.413Z,101909.59
2022-10-20T04:39:51.288Z,101915.25
2022-10-20T04:42:18.668Z,101899.22
2022-10-20T04:44:55.501Z,101891.97
2022-10-20T04:47:22.038Z,101922.34
2022-10-20T04:49:48.522Z,101926.31
2022-10-20T04:52:14.831Z,101872.47
2022-10-20T04:54:42.441Z,101825.38
2022-10-20T04:57:10.755Z,101919.25
2022-10-20T04:59:37.456Z,101923.41
2022-10-20T05:02:04.015Z,101911.94
2022-10-20T05:04:31.280Z,101890.91
2022-10-20T05:06:57.665Z,101812.63
2022-10-20T05:09:24.055Z,101895.94
2022-10-20T05:11:54.704Z,101877.91
2022-10-20T05:14:21.308Z,101874.38
2022-10-20T05:16:53.993Z,101808.94
2022-10-20T05:19:20.564Z,101896.00
2022-10-20T05:21:47.962Z,101850.31
2022-10-20T05:24:19.847Z,101879.19
2022-10-20T05:26:48.370Z,101883.13
2022-10-20T05:29:14.795Z,101861.22
2022-10-20T05:31:43.301Z,101696.91
2022-10-20T05:34:11.081Z,101719.72
2022-10-20T05:36:37.796Z,101674.06
2022-10-20T05:39:04.367Z,101660.75
2022-10-20T05:41:36.287Z,101851.09
2022-10-20T05:44:07.079Z,101761.09
2022-10-20T05:46:37.795Z,101831.59
2022-10-20T05:49:04.272Z,101646.63
2022-10-20T05:51:34.196Z,101451.63
2022-10-20T05:54:01.965Z,101815.16
2022-10-20T05:56:30.091Z,101836.97
2022-10-20T05:58:57.993Z,101827.63
2022-10-20T06:01:27.889Z,101454.56
2022-10-20T06:03:56.932Z,101675.75
2022-10-20T06:06:29.755Z,101741.13
2022-10-20T06:08:58.753Z,101811.44
2022-10-20T06:11:26.115Z,101692.47
2022-10-20T06:13:55.834Z,101834.72
2022-10-20T06:16:24.299Z,101738.31
2022-10-20T06:18:51.000Z,101824.84
2022-10-20T06:21:20.060Z,101429.78
2022-10-20T06:23:46.568Z,101763.41
2022-10-20T06:26:17.645Z,101837.28
2022-10-20T06:28:45.006Z,101670.72
2022-10-20T06:31:20.086Z,101693.94
2022-10-20T06:33:47.187Z,101790.00
2022-10-20T06:36:14.520Z,101648.31
2022-10-20T06:38:41.670Z,101813.34
2022-10-20T06:41:11.809Z,101606.88
2022-10-20T06:43:38.554Z,101544.50
2022-10-20T06:46:07.914Z,101761.41
2022-10-20T06:48:35.481Z,101570.78
2022-10-20T06:51:13.905Z,101623.81
2022-10-20T06:53:44.311Z,101778.63
2022-10-20T06:56:16.457Z,101860.25
2022-10-20T06:58:44.804Z,101776.72
2022-10-20T07:01:14.689Z,101737.47
2022-10-20T07:03:45.048Z,101824.69
2022-10-20T07:06:17.247Z,101839.34
2022-10-20T07:08:43.937Z,101836.13
2022-10-20T07:11:16.494Z,101824.78
2022-10-20T07:13:43.601Z,101825.47
2022-10-20T07:16:14.093Z,101821.94
2022-10-20T07:18:41.418Z,101645.66
2022-10-20T07:21:12.511Z,101830.88
2022-10-20T07:23:38.975Z,101642.38
2022-10-20T07:26:12.744Z,101829.75
2022-10-20T07:28:42.604Z,101552.41
2022-10-20T07:31:15.176Z,101821.66
2022-10-20T07:33:41.615Z,101680.41
2022-10-20T07:36:20.476Z,101725.84
2022-10-20T07:38:48.090Z,101701.75
2022-10-20T07:41:15.410Z,101852.47
2022-10-20T07:43:42.318Z,101805.16
2022-10-20T07:46:09.976Z,101685.06
2022-10-20T07:48:36.741Z,101779.94
2022-10-20T07:51:21.485Z,101757.41
2022-10-20T07:53:48.787Z,101772.97
2022-10-20T07:56:15.702Z,101768.19
2022-10-20T07:58:43.173Z,101757.91
2022-10-20T08:01:10.415Z,101745.56
2022-10-20T08:03:37.280Z,101656.72
2022-10-20T08:06:03.974Z,101737.84
2022-10-20T08:08:30.585Z,101686.28
2022-10-20T08:10:58.391Z,101597.97
2022-10-20T08:13:26.355Z,101732.72
2022-10-20T08:18:36.033Z,101719.31
2022-10-20T08:21:07.181Z,101720.13
2022-10-20T08:23:33.578Z,101691.00
2022-10-20T08:25:59.900Z,101698.53
2022-10-20T08:28:27.129Z,101675.50
2022-10-20T08:30:53.785Z,101700.28
2022-10-20T08:33:20.179Z,101700.94
2022-10-20T08:35:46.591Z,101667.75
2022-10-20T08:38:13.027Z,101690.88
2022-10-20T08:40:42.631Z,101691.19
2022-10-20T08:43:18.925Z,101627.31
2022-10-20T08:45:45.891Z,101669.81
2022-10-20T08:48:19.146Z,101493.81
2022-10-20T08:50:48.944Z,101654.03
2022-10-20T08:53:15.351Z,101626.56
2022-10-20T08:55:44.189Z,101659.38
2022-10-20T08:58:22.855Z,101656.03
2022-10-20T09:00:56.077Z,101617.38
2022-10-20T09:03:27.967Z,101655.97
2022-10-20T09:06:01.816Z,101639.16
2022-10-20T09:08:31.183Z,101528.84
2022-10-20T09:10:57.766Z,101637.63
2022-10-20T09:13:29.900Z,101637.50
2022-10-20T09:16:22.059Z,101599.22
2022-10-20T09:19:01.381Z,101452.22
2022-10-20T09:21:31.647Z,101626.19
2022-10-20T09:24:03.900Z,101635.50
2022-10-20T09:26:57.935Z,101616.88
2022-10-20T09:29:35.721Z,101569.78
2022-10-20T09:32:15.354Z,101597.28
2022-10-20T09:34:44.419Z,101590.50
2022-10-20T09:37:14.452Z,101550.00
2022-10-20T09:39:55.654Z,101261.47
2022-10-20T09:42:30.347Z,101582.75
2022-10-20T09:45:02.472Z,101334.72
2022-10-20T09:47:29.069Z,101573.66
2022-10-20T09:50:05.558Z,101384.28
2022-10-20T09:52:38.106Z,101587.28
2022-10-20T09:55:17.020Z,101414.66
2022-10-20T09:57:47.642Z,101582.19
2022-10-20T10:00:38.313Z,101581.00
2022-10-20T10:03:11.027Z,101519.25
2022-10-20T10:05:37.401Z,101544.97
2022-10-20T10:08:03.842Z,101466.78
2022-10-20T10:10:31.928Z,101552.53
2022-10-20T10:13:01.173Z,101586.19
2022-10-20T10:15:31.985Z,101551.91
2022-10-20T10:17:59.739Z,101269.00
2022-10-20T10:20:37.580Z,101575.81
2022-10-20T10:23:26.548Z,101555.53
2022-10-20T10:25:56.789Z,101516.53
2022-10-20T10:28:39.140Z,101108.31
2022-10-20T10:31:05.499Z,101544.09
2022-10-20T10:33:33.177Z,101512.78
2022-10-20T10:36:05.342Z,101529.19
2022-10-20T10:38:31.589Z,101549.94
2022-10-20T10:41:16.081Z,101535.22
2022-10-20T10:44:00.766Z,101538.06
2022-10-20T10:46:36.916Z,101485.31
2022-10-20T10:49:22.183Z,101520.81
2022-10-20T10:52:00.955Z,101542.44
2022-10-20T10:55:14.382Z,101462.53
2022-10-20T10:58:01.156Z,101506.72
2022-10-20T11:00:33.606Z,101205.25
2022-10-20T11:03:14.653Z,101407.16
2022-10-20T11:05:59.122Z,101371.03
2022-10-20T11:08:36.709Z,101416.41
2022-10-20T11:11:18.831Z,101468.56
2022-10-20T11:14:12.941Z,101447.81
2022-10-20T11:16:54.127Z,101451.94
2022-10-20T11:19:35.148Z,101289.31
2022-10-20T11:22:27.933Z,101415.91
2022-10-20T11:25:16.012Z,101431.47
2022-10-20T11:27:42.620Z,101405.31
2022-10-20T11:30:22.014Z,101404.75
2022-10-20T11:33:17.062Z,101368.78
2022-10-20T11:36:03.288Z,101415.69
2022-10-20T11:38:51.122Z,101219.97
2022-10-20T11:41:28.568Z,101182.38
2022-10-20T11:44:36.486Z,101403.00
2022-10-20T11:47:28.912Z,101402.44
2022-10-20T11:49:55.368Z,101382.53
2022-10-20T11:52:40.362Z,101388.13
2022-10-20T11:55:49.591Z,101378.72
2022-10-20T11:58:33.315Z,101399.56
2022-10-20T12:01:09.012Z,101389.22
2022-10-20T12:04:06.521Z,101380.78
2022-10-20T12:06:51.726Z,101386.91
2022-10-20T12:09:50.333Z,101367.19
2022-10-20T12:12:32.431Z,101360.47
2022-10-20T12:15:00.982Z,101361.78
2022-10-20T12:17:42.483Z,101362.09
2022-10-20T12:20:21.225Z,101185.47
2022-10-20T12:22:58.950Z,101321.06
2022-10-20T12:25:25.351Z,101363.19
2022-10-20T12:28:19.695Z,101349.66
2022-10-20T12:31:00.398Z,101363.56
2022-10-20T12:33:40.891Z,101359.28
2022-10-20T12:36:28.371Z,101186.34
2022-10-20T12:39:13.488Z,101331.78
2022-10-20T12:42:05.212Z,101058.06
2022-10-20T12:44:42.056Z,101346.13
2022-10-20T12:47:10.130Z,101287.22
2022-10-20T12:49:40.392Z,101307.81
2022-10-20T12:52:17.443Z,101177.97
2022-10-20T12:54:48.456Z,101271.19
2022-10-20T12:57:31.527Z,101149.09
2022-10-20T12:59:58.119Z,101275.84
2022-10-20T13:02:24.642Z,101266.88
2022-10-20T13:05:14.073Z,101275.69
2022-10-20T13:07:47.028Z,101126.63
2022-10-20T13:10:32.675Z,101270.28
2022-10-20T13:13:02.917Z,101262.22
2022-10-20T13:15:31.902Z,100971.28
2022-10-20T13:18:17.462Z,101242.44
2022-10-20T13:20:50.199Z,101247.66
2022-10-20T13:23:50.679Z,101232.66
2022-10-20T13:26:45.372Z,100963.25
2022-10-20T13:29:19.847Z,101194.41
2022-10-20T13:32:05.110Z,101191.91
2022-10-20T13:34:57.471Z,101032.97
2022-10-20T13:37:45.786Z,101055.78
2022-10-20T13:40:30.910Z,101215.03
2022-10-20T13:43:23.678Z,101042.38
2022-10-20T13:45:50.143Z,101211.91
2022-10-20T13:48:52.700Z,101199.91
2022-10-20T13:51:24.835Z,101163.94
2022-10-20T13:53:56.621Z,101006.50
2022-10-20T13:56:35.259Z,101233.88
2022-10-20T13:59:19.451Z,101213.91
2022-10-20T14:01:49.688Z,101239.19
2022-10-20T14:04:25.588Z,100749.50
2022-10-20T14:06:52.513Z,101203.69
2022-10-20T14:09:22.315Z,101197.22
2022-10-20T14:12:04.395Z,101199.09
2022-10-20T14:14:32.232Z,101103.84
2022-10-20T14:17:02.338Z,101183.94
2022-10-20T14:19:31.148Z,101181.34
2022-10-20T14:22:19.572Z,101111.13
2022-10-20T14:24:48.647Z,101189.63
2022-10-20T14:27:22.235Z,101181.78
2022-10-20T14:29:51.628Z,101161.91
2022-10-20T14:32:24.601Z,101004.44
2022-10-20T14:35:23.667Z,101181.75
2022-10-20T14:38:09.884Z,101057.63
2022-10-20T14:40:38.116Z,100734.63
2022-10-20T14:43:12.697Z,101126.03
2022-10-20T14:45:52.842Z,101156.50
2022-10-20T14:48:20.257Z,101125.63
2022-10-20T14:50:46.938Z,101154.00
2022-10-20T14:53:36.383Z,101113.31
2022-10-20T14:56:03.286Z,101116.31
2022-10-20T14:58:34.799Z,101163.00
2022-10-20T15:01:35.200Z,101145.31
2022-10-20T15:04:05.080Z,100965.94
2022-10-20T15:06:32.248Z,101125.34
2022-10-20T15:08:59.826Z,101125.84
2022-10-20T15:11:28.236Z,101108.38
2022-10-20T15:13:58.955Z,101150.25
2022-10-20T15:16:47.328Z,101083.53
2022-10-20T15:19:36.450Z,100855.13
2022-10-20T15:24:39.496Z,101174.38
2022-10-20T15:27:13.818Z,101071.50
2022-10-20T15:29:48.078Z,101067.38
2022-10-20T15:32:15.895Z,101119.22
2022-10-20T15:34:43.138Z,101107.75
2022-10-20T15:37:10.341Z,101111.44
2022-10-20T15:39:48.643Z,101108.38
2022-10-20T15:42:15.998Z,101104.59
2022-10-20T15:44:49.819Z,101020.50
2022-10-20T15:47:16.813Z,101113.88
2022-10-20T15:49:45.345Z,101023.69
2022-10-20T15:52:11.933Z,101046.63
2022-10-20T15:55:25.472Z,101121.69
2022-10-20T15:57:53.321Z,101121.41
2022-10-20T16:00:22.093Z,101132.44
2022-10-20T16:02:50.155Z,101107.25
2022-10-20T16:05:18.940Z,101029.50
2022-10-20T16:07:46.119Z,100942.63
2022-10-20T16:10:14.223Z,101080.84
2022-10-20T16:12:41.605Z,101114.38
2022-10-20T16:15:09.843Z,101122.50
2022-10-20T16:17:36.994Z,101131.47
2022-10-20T16:20:07.938Z,100946.69
2022-10-20T16:22:36.081Z,101133.97
2022-10-20T16:25:10.693Z,101126.97
2022-10-20T16:27:37.873Z,101153.69
2022-10-20T16:30:05.977Z,101128.88
2022-10-20T16:32:35.434Z,101134.41
2022-10-20T16:35:06.366Z,101093.94
2022-10-20T16:37:33.751Z,101135.06
2022-10-20T16:40:08.313Z,101073.72
2022-10-20T16:42:36.065Z,101129.28
2022-10-20T16:45:03.023Z,101129.56
2022-10-20T16:47:29.723Z,101128.72
2022-10-20T16:49:58.231Z,101137.19
2022-10-20T16:52:25.157Z,101126.66
2022-10-20T16:54:51.925Z,101124.22
2022-10-20T16:57:18.324Z,101089.41
2022-10-20T16:59:50.482Z,101120.66
2022-10-20T17:02:18.463Z,101110.75
2022-10-20T17:04:54.161Z,101110.63
2022-10-20T17:07:20.773Z,101117.00
2022-10-20T17:10:23.016Z,101117.56
2022-10-20T17:15:16.479Z,101084.38
2022-10-20T17:17:43.758Z,101100.97
2022-10-20T17:20:10.706Z,101077.22
2022-10-20T17:22:37.472Z,101015.09
2022-10-20T17:25:04.962Z,101073.50
2022-10-20T17:27:31.753Z,101053.06
2022-10-20T17:29:58.458Z,101020.13
2022-10-20T17:32:25.308Z,101010.31
2022-10-20T17:34:52.176Z,101054.75
2022-10-20T17:37:19.455Z,100969.28
2022-10-20T17:39:48.191Z,101058.56
2022-10-20T17:42:16.042Z,101061.06
2022-10-20T17:44:43.120Z,101056.66
2022-10-20T17:47:09.716Z,101007.75
2022-10-20T17:49:39.469Z,100977.91
2022-10-20T17:52:06.401Z,101052.47
2022-10-20T17:54:33.723Z,101035.09
2022-10-20T17:57:00.902Z,101056.81
2022-10-20T17:59:27.757Z,101053.19
2022-10-20T18:01:55.851Z,101055.03
2022-10-20T18:04:22.682Z,101031.84
2022-10-20T18:06:50.114Z,101043.34
2022-10-20T18:09:19.304Z,101015.94
2022-10-20T18:11:50.027Z,101035.25
2022-10-20T18:14:18.156Z,100985.75
2022-10-20T18:16:47.308Z,101031.84
2022-10-20T18:19:18.568Z,101026.97
2022-10-20T18:21:45.891Z,101018.09
2022-10-20T18:24:18.390Z,101012.28
2022-10-20T18:26:48.832Z,100871.25
2022-10-20T18:29:17.671Z,100951.81
2022-10-20T18:31:46.683Z,101013.06
2022-10-20T18:34:17.398Z,100977.81
2022-10-20T18:36:45.951Z,100995.94
2022-10-20T18:39:14.907Z,100997.97
2022-10-20T18:41:44.645Z,101010.47
2022-10-20T18:44:14.850Z,100999.81
2022-10-20T18:46:42.643Z,100996.13
2022-10-20T18:49:11.788Z,100896.34
2022-10-20T18:51:39.254Z,100983.69
2022-10-20T18:54:07.995Z,100805.03
2022-10-20T18:56:36.340Z,100992.00
2022-10-20T18:59:07.577Z,100972.38
2022-10-20T19:01:37.374Z,100785.81
2022-10-20T19:04:05.308Z,100971.59
2022-10-20T19:06:43.543Z,100969.19
2022-10-20T19:09:17.091Z,100959.50
2022-10-20T19:11:45.397Z,100817.31
2022-10-20T19:14:19.621Z,100972.88
2022-10-20T19:16:49.107Z,100959.31
2022-10-20T19:19:21.149Z,100970.44
2022-10-20T19:21:49.397Z,100954.97
2022-10-20T19:24:22.798Z,100958.25
2022-10-20T19:27:26.010Z,100950.19
2022-10-20T19:29:47.604Z,100951.44
2022-10-20T19:32:14.609Z,100942.53
2022-10-20T19:34:42.385Z,100947.31
2022-10-20T19:37:10.700Z,100921.94
2022-10-20T19:39:41.533Z,100901.97
2022-10-20T19:42:09.653Z,100749.84
2022-10-20T19:44:37.302Z,100940.44
2022-10-20T19:47:05.226Z,100936.09
2022-10-20T19:49:33.418Z,100939.34
2022-10-20T19:52:00.040Z,100930.94
2022-10-20T19:54:27.143Z,100935.25
2022-10-20T19:56:55.536Z,100928.50
2022-10-20T19:59:23.215Z,100922.81
2022-10-20T20:01:52.869Z,100932.81
2022-10-20T20:04:20.474Z,100908.00
2022-10-20T20:06:47.024Z,100819.38
2022-10-20T20:09:21.466Z,100903.41
2022-10-20T20:11:49.174Z,100900.53
2022-10-20T20:14:20.015Z,100853.53
2022-10-20T20:16:47.804Z,100847.19
2022-10-20T20:19:16.949Z,100833.69
2022-10-20T20:21:46.607Z,100905.69
2022-10-20T20:24:16.186Z,100911.63
2022-10-20T20:26:45.774Z,100883.38
2022-10-20T20:29:17.315Z,100909.66
2022-10-20T20:31:46.697Z,100859.19
2022-10-20T20:34:14.143Z,100879.03
2022-10-20T20:36:42.317Z,100901.25
2022-10-20T20:39:10.500Z,100908.31
2022-10-20T20:41:37.032Z,100902.41
2022-10-20T20:44:08.336Z,100872.72
2022-10-20T20:46:39.219Z,100888.53
2022-10-20T20:49:07.171Z,100878.41
2022-10-20T20:51:34.649Z,100883.56
2022-10-20T20:54:02.817Z,100871.38
2022-10-20T20:56:32.176Z,100878.97
2022-10-20T20:59:00.780Z,100885.38
2022-10-20T21:01:32.147Z,100823.66
2022-10-20T21:04:02.017Z,100865.88
2022-10-20T21:06:33.672Z,100877.97
2022-10-20T21:09:07.895Z,100860.25
2022-10-20T21:11:37.424Z,100857.56
2022-10-20T21:14:04.756Z,100748.19
2022-10-20T21:16:34.294Z,100492.66
2022-10-20T21:19:09.640Z,100896.34
2022-10-20T21:21:40.240Z,100758.06
2022-10-20T21:24:07.207Z,100714.66
2022-10-20T21:26:35.478Z,100878.31
2022-10-20T21:29:04.920Z,100867.44
2022-10-20T21:31:31.867Z,100857.25
2022-10-20T21:34:05.983Z,100866.88
2022-10-20T21:36:35.476Z,100855.56
2022-10-20T21:39:05.485Z,100751.56
2022-10-20T21:41:35.354Z,100817.13
2022-10-20T21:44:05.373Z,100865.19
2022-10-20T21:46:41.104Z,100831.19
2022-10-20T21:49:11.668Z,100834.88
2022-10-20T21:51:45.582Z,100805.06
2022-10-20T21:54:16.806Z,100842.28
2022-10-20T21:56:47.365Z,100849.94
2022-10-20T21:59:25.902Z,100849.50
2022-10-20T22:01:56.577Z,100851.00
2022-10-20T22:04:27.289Z,100804.97
2022-10-20T22:06:55.428Z,100837.09
2022-10-20T22:09:23.700Z,100787.66
2022-10-20T22:11:55.477Z,100823.50
2022-10-20T22:14:24.285Z,100824.16
2022-10-20T22:16:55.638Z,100712.75
2022-10-20T22:19:25.639Z,100816.50
2022-10-20T22:21:54.052Z,100826.41
2022-10-20T22:24:37.614Z,100821.84
2022-10-20T22:27:11.387Z,100793.53
2022-10-20T22:29:47.040Z,100772.47
2022-10-20T22:32:28.185Z,100827.47
2022-10-20T22:34:55.126Z,100838.59
2022-10-20T22:37:22.080Z,100703.84
2022-10-20T22:39:48.736Z,100828.47
2022-10-20T22:42:52.898Z,100832.19
2022-10-20T22:45:19.570Z,100737.75
2022-10-20T22:47:46.391Z,100802.88
2022-10-20T22:50:13.228Z,100802.78
2022-10-20T22:52:47.313Z,100820.84
2022-10-20T22:55:13.862Z,100790.84
2022-10-20T23:00:28.628Z,100829.31
2022-10-20T23:02:55.580Z,100824.78
2022-10-20T23:05:22.908Z,100828.16
2022-10-20T23:07:49.538Z,100831.03
2022-10-20T23:10:16.421Z,100729.00
2022-10-20T23:12:43.376Z,100821.06
2022-10-20T23:15:10.382Z,100810.94
2022-10-20T23:17:37.813Z,100823.81
2022-10-20T23:20:05.955Z,100821.22
2022-10-20T23:22:32.626Z,100801.34
2022-10-20T23:25:02.250Z,100837.88
2022-10-20T23:27:29.260Z,100828.69
2022-10-20T23:29:57.250Z,100826.91
2022-10-20T23:32:24.270Z,100826.44
2022-10-20T23:34:51.194Z,100778.88
2022-10-20T23:37:19.811Z,100797.06
2022-10-20T23:39:46.596Z,100780.53
2022-10-20T23:42:13.431Z,100699.81
2022-10-20T23:44:40.190Z,100838.84
2022-10-20T23:47:06.817Z,100826.84
2022-10-20T23:49:33.649Z,100833.22
2022-10-20T23:52:00.487Z,100697.06
2022-10-20T23:54:27.296Z,100835.47
2022-10-20T23:56:54.126Z,100817.50
2022-10-20T23:59:21.025Z,100702.00
